Pagina principale
METAR-TAF:

METAR-TAF

Aeroporti :

Messina, Italia

latitudine: 38-12N, longitudine: 015-33E, altezza: 59 m

Osservazione

Il bollettino è stato emesso 42 minuti fa, alle 05:55 UTC
Vento 7 kt da nord
Temperature 14°C
Umidità 82%
Pressione 1014 hPa
Visibilità 10 km o più
Nuvoloso ad un'altezza di 2000 ft

METAR: LICF 170555Z 35007KT 9999 BKN020 14/11 Q1014 RMK BKN QUK 2 QUL 0 VIS MAR 12 KM MON CIME INC VAR RAPID VIS MIN 9999

Ora: 07:37 (06:37 UTC)


TAF: mancante

Osservazioni e previsioni meteorologiche di più di 4000 aeroporti (messaggi METAR e TAF).

Le stazioni disponibili sono rappresentate dai dischi gialli e rossi sulla carta.

Puntare il mouse per vedere il nome della stazione.

Clicca sopra per visualizzare le osservazioni e previsioni meteorologiche.

Per cambiare la mappa : fare clic sui pulsanti verdi con una croce nera per ingrandire, il pulsante verde con un trattino per diminuire, o sulla freccia verde per le mappe adiacenti.


METAR-TAF: